Home > Products > Valid Products > TAF

000
FTUS45 KFGZ 250520
TAFINW
TAF
KINW 250520Z 2506/2606 22008KT P6SM BKN080
     FM251800 26011G20KT P6SM BKN070 BKN110
     FM260300 22008KT P6SM SCT070 BKN110=



000
FTUS45 KFGZ 250520
TAFFLG
TAF
KFLG 250520Z 2506/2606 VRB05KT P6SM BKN050 BKN100
     FM251800 23010G18KT P6SM VCSH BKN060 BKN100
      TEMPO 2520/2524 5SM -SHRA BKN040 OVC080
     FM260300 VRB03KT P6SM SCT060=



000
FTUS45 KFGZ 250520
TAFPGA
TAF
KPGA 250520Z 2506/2606 VRB05KT P6SM BKN060 BKN110
     FM251800 21009KT P6SM VCSH SCT070 BKN110
     FM260000 VRB05KT P6SM SCT080=



000
FTUS45 KFGZ 250114 AAA
TAFINW
TAF AMD
KINW 250114Z 2501/2524 20012KT P6SM BKN080
      TEMPO 2501/2503 VRB15G25KT -TSRA BKN060CB
     FM250300 22008KT P6SM BKN080
     FM251800 26009KT P6SM SCT050 BKN080=



000
FTUS45 KFGZ 242320
TAFPGA
TAF
KPGA 242320Z 2500/2524 28007KT P6SM SCT030 BKN060
      TEMPO 2500/2504 6SM -TSRA BKN040CB
     FM250400 VRB05KT P6SM BKN060 BKN110
     FM251800 21009KT P6SM SCT050 BKN070 PROB30 2518/2524 -SHRA
      BKN040=



000
FTUS45 KFGZ 242320
TAFINW
TAF
KINW 242320Z 2500/2524 29012G22KT P6SM BKN080
      TEMPO 2500/2503 VRB15G25KT -TSRA BKN060CB
     FM250300 22008KT P6SM BKN080
     FM251800 26009KT P6SM SCT050 BKN080=



000
FTUS45 KFGZ 242320
TAFFLG
TAF
KFLG 242320Z 2500/2524 22010KT P6SM VCSH SCT030 OVC060
      TEMPO 2500/2503 5SM -SHRA OVC030
     FM250300 VRB05KT P6SM BKN035 OVC080
     FM251800 21009KT P6SM SCT030 BKN050 PROB30 2518/2524 -SHRA
      BKN030=



000
FTUS45 KFGZ 242320
TAFFLG
TAF
KFLG 242320Z 2500/2524 22010KT P6SM VCSH SCT030 OVC060
      TEMPO 2500/2503 5SM -SHRA OVC030
     FM250300 VRB05KT P6SM BKN035 OVC080
     FM251800 21009KT P6SM SCT030 BKN050 PROB30 2518/2524 -SHRA
      BKN030=



000
FTUS45 KFGZ 242320
TAFINW
TAF
KINW 242320Z 2500/2524 29012G22KT P6SM BKN080
      TEMPO 2500/2503 VRB15G25KT -TSRA BKN060CB
     FM250300 22008KT P6SM BKN080
     FM251800 26009KT P6SM SCT050 BKN080=



000
FTUS45 KFGZ 242320
TAFPGA
TAF
KPGA 242320Z 2500/2524 28007KT P6SM SCT030 BKN060
      TEMPO 2500/2504 6SM -TSRA BKN040CB
     FM250400 VRB05KT P6SM BKN060 BKN110
     FM251800 21009KT P6SM SCT050 BKN070 PROB30 2518/2524 -SHRA
      BKN040=



000
FTUS45 KFGZ 241832 AAA
TAFINW
TAF AMD
KINW 241832Z 2419/2518 11006KT P6SM BKN100
      TEMPO 2419/2422 -SHRA BKN060
     FM242200 27010G20KT P6SM BKN080
      TEMPO 2423/2503 VRB15G25KT -TSRA BKN060CB
     FM250300 22008KT P6SM BKN080=



000
FTUS45 KFGZ 241832 AAA
TAFINW
TAF AMD
KINW 241832Z 2419/2518 11006KT P6SM BKN100
      TEMPO 2419/2422 -SHRA BKN060
     FM242200 27010G20KT P6SM BKN080
      TEMPO 2423/2503 VRB15G25KT -TSRA BKN060CB
     FM250300 22008KT P6SM BKN080=



000
FTUS45 KFGZ 241734
TAFINW
TAF
KINW 241734Z 2418/2518 11006KT P6SM BKN100
     FM242000 27010G20KT P6SM BKN080
      TEMPO 2423/2503 VRB15G25KT -TSRA BKN060CB
     FM250300 22008KT P6SM BKN080=



000
FTUS45 KFGZ 241734
TAFFLG
TAF
KFLG 241734Z 2418/2518 21012G23KT P6SM VCSH SCT030 BKN040
      TEMPO 2420/2424 5SM -SHRA OVC030
     FM250300 VRB05KT P6SM BKN035 OVC080=



000
FTUS45 KFGZ 241734
TAFPGA
TAF
KPGA 241734Z 2418/2518 28007KT P6SM SCT030 BKN060
      TEMPO 2420/2424 6SM -SHRA BKN040
     FM250300 VRB05KT P6SM BKN060 BKN110 PROB30 2507/2512 6SM -SHRA
      BKN040=



000
FTUS45 KFGZ 241411 AAA
TAFINW
TAF AMD
KINW 241411Z 2414/2512 11006KT P6SM BKN080
      TEMPO 2414/2417 6SM -RA OVC060
     FM242000 27010G20KT P6SM BKN080 PROB30 2423/2503 VRB15G25KT
      -TSRA BKN060CB
     FM250300 22008KT P6SM BKN080=



000
FTUS45 KFGZ 241140
TAFINW
TAF
KINW 241140Z 2412/2512 21009KT P6SM BKN100
     FM242000 27010G20KT P6SM BKN080 PROB30 2421/2502 VRB15G25KT
      -TSRA BKN060CB
     FM250300 22008KT P6SM BKN080=



000
FTUS45 KFGZ 241140
TAFPGA
TAF
KPGA 241140Z 2412/2512 VRB05KT P6SM -RA OVC050
     FM241400 28007KT P6SM SCT040 BKN060
      TEMPO 2420/2424 6SM -SHRA BKN040
     FM250300 VRB05KT P6SM BKN060 BKN110 PROB30 2507/2512 6SM -SHRA
      BKN040=



000
FTUS45 KFGZ 241140
TAFFLG
TAF
KFLG 241140Z 2412/2512 VRB05KT P6SM BKN035 BKN050
     FM241800 21012G23KT P6SM VCSH SCT030 BKN040
      TEMPO 2420/2424 5SM -SHRA OVC030
     FM250300 VRB05KT P6SM BKN035 OVC080=



000
FTUS45 KFGZ 241140
TAFINW
TAF
KINW 241140Z 2412/2512 21009KT P6SM BKN100
     FM242000 27010G20KT P6SM BKN080 PROB30 2421/2502 VRB15G25KT
      -TSRA BKN060CB
     FM250300 22008KT P6SM BKN080=



000
FTUS45 KFGZ 241140
TAFFLG
TAF
KFLG 241140Z 2412/2512 VRB05KT P6SM BKN035 BKN050
     FM241800 21012G23KT P6SM VCSH SCT030 BKN040
      TEMPO 2420/2424 5SM -SHRA OVC030
     FM250300 VRB05KT P6SM BKN035 OVC080=



000
FTUS45 KFGZ 241140
TAFPGA
TAF
KPGA 241140Z 2412/2512 VRB05KT P6SM -RA OVC050
     FM241400 28007KT P6SM SCT040 BKN060
      TEMPO 2420/2424 6SM -SHRA BKN040
     FM250300 VRB05KT P6SM BKN060 BKN110 PROB30 2507/2512 6SM -SHRA
      BKN040=



000
FTUS45 KFGZ 240745 AAA
TAFPGA
TAF AMD
KPGA 240745Z 2408/2506 VRB05KT 5SM -RA BR SCT013 OVC040
      TEMPO 2408/2412 2SM RA BR OVC013
     FM241300 28007KT P6SM SCT035 BKN060 BKN110 PROB30 2420/2502
      -SHRA BKN050
     FM250300 VRB05KT P6SM BKN060 BKN110=



000
FTUS45 KFGZ 240528
TAFPGA
TAF
KPGA 240528Z 2406/2506 VRB05KT P6SM SCT035 BKN060 BKN110 PROB30
      2420/2502 -SHRA BKN050
     FM250300 VRB05KT P6SM BKN060 BKN110=



000
FTUS45 KFGZ 240528
TAFFLG
TAF
KFLG 240528Z 2406/2506 VRB05KT P6SM BKN035 BKN050
     FM241800 21012G23KT P6SM VCSH SCT030 BKN050
      TEMPO 2420/2424 -SHRA BKN030
     FM250300 VRB05KT P6SM BKN035 OVC080=



000
FTUS45 KFGZ 240528
TAFINW
TAF
KINW 240528Z 2406/2506 21009KT P6SM BKN100
     FM242000 27010G20KT P6SM BKN080 PROB30 2420/2502 -SHRA BKN050
     FM250300 22008KT P6SM BKN080=



000
FTUS45 KFGZ 240142 AAB
TAFPGA
TAF AMD
KPGA 240142Z 2402/2424 VRB06KT P6SM BKN040 BKN100
      TEMPO 2402/2404 2SM SHRA OVC040
     FM240500 VRB05KT P6SM BKN050 BKN100
     FM241800 21010KT P6SM SCT050 BKN080 PROB30 2418/2424 -SHRA
      BKN040=



000
FTUS45 KFGZ 240125 AAA
TAFPGA
TAF AMD
KPGA 240125Z 2401/2424 VRB06KT P6SM BKN040 BKN100
      TEMPO 2401/2404 3SM -SHRA OVC040
     FM240500 VRB05KT P6SM BKN050 BKN100
     FM241800 21010KT P6SM SCT050 BKN080 PROB30 2418/2424 -SHRA
      BKN040=



000
FTUS45 KFGZ 240125 AAA
TAFPGA
TAF AMD
KPGA 240125Z 2401/2424 VRB06KT P6SM BKN040 BKN100
      TEMPO 2401/2404 3SM -SHRA OVC040
     FM240500 VRB05KT P6SM BKN050 BKN100
     FM241800 21010KT P6SM SCT050 BKN080 PROB30 2418/2424 -SHRA
      BKN040=



000
FTUS45 KFGZ 232320
TAFFLG
TAF
KFLG 232320Z 2400/2424 24012G18KT P6SM SCT030 BKN045
     FM240100 VRB05KT P6SM BKN035 BKN100
     FM241800 21012G23KT P6SM SCT030 BKN050 PROB30 2418/2424 -SHRA
      BKN030=



000
FTUS45 KFGZ 232320
TAFINW
TAF
KINW 232320Z 2400/2424 25013G24KT P6SM BKN070
     FM240200 21009KT P6SM BKN100
     FM241700 23012G22KT P6SM SCT050 BKN120 PROB30 2418/2424 -SHRA
      BKN040=



000
FTUS45 KFGZ 232320
TAFPGA
TAF
KPGA 232320Z 2400/2424 28010KT P6SM BKN040 BKN080
      TEMPO 2400/2404 6SM -SHRA OVC040
     FM240500 VRB05KT P6SM BKN050 BKN100
     FM241800 21010KT P6SM SCT050 BKN080 PROB30 2418/2424 -SHRA
      BKN040=



000
FTUS45 KFGZ 231813 AAA
TAFFLG
TAF AMD
KFLG 231813Z 2318/2418 24006G18KT P6SM BKN035 OVC050
      TEMPO 2318/2319 BKN025
     FM231900 24012G18KT P6SM SCT030 BKN045
      TEMPO 2320/2324 5SM -TSRA BKN030CB
     FM240100 VRB05KT P6SM BKN035 BKN100=



000
FTUS45 KFGZ 231738
TAFINW
TAF
KINW 231738Z 2318/2418 25013G24KT P6SM BKN070
     FM240200 21009KT P6SM BKN100=



000
FTUS45 KFGZ 231738
TAFFLG
TAF
KFLG 231738Z 2318/2418 24006KT P6SM BKN035 OVC050
      TEMPO 2318/2319 BKN025
     FM231900 24012G18KT P6SM SCT030 BKN045
      TEMPO 2320/2324 5SM -TSRA BKN030CB
     FM240100 VRB05KT P6SM BKN035 BKN100=



000
FTUS45 KFGZ 231738
TAFPGA
TAF
KPGA 231738Z 2318/2418 28010KT P6SM BKN040 BKN080
      TEMPO 2320/2324 6SM -SHRA OVC040
     FM240200 VRB05KT P6SM BKN050 BKN100=



000
FTUS45 KFGZ 231547 AAA
TAFFLG
TAF AMD
KFLG 231547Z 2316/2412 24006KT P6SM FEW015 BKN060
      TEMPO 2316/2319 BKN015
     FM231900 24012G18KT P6SM SCT030 BKN045
      TEMPO 2320/2324 5SM -TSRA BKN030CB
     FM240100 VRB05KT P6SM BKN035 BKN100=



000
FTUS45 KFGZ 231120
TAFPGA
TAF
KPGA 231120Z 2312/2412 VRB05KT P6SM VCSH SCT050 BKN070
      TEMPO 2312/2315 6SM -SHRA BR OVC050
     FM231800 28010KT P6SM BKN040 BKN080
      TEMPO 2320/2324 6SM -SHRA OVC040
     FM240200 VRB05KT P6SM BKN050 BKN100=



000
FTUS45 KFGZ 231120
TAFFLG
TAF
KFLG 231120Z 2312/2412 24006KT P6SM SCT035 BKN060
     FM231900 24012G18KT P6SM SCT030 BKN045
      TEMPO 2320/2324 5SM -TSRA BKN030CB
     FM240100 VRB05KT P6SM BKN035 BKN100=



000
FTUS45 KFGZ 231120
TAFPGA
TAF
KPGA 231120Z 2312/2412 VRB05KT P6SM VCSH SCT050 BKN070
      TEMPO 2312/2315 6SM -SHRA BR OVC050
     FM231800 28010KT P6SM BKN040 BKN080
      TEMPO 2320/2324 6SM -SHRA OVC040
     FM240200 VRB05KT P6SM BKN050 BKN100=



000
FTUS45 KFGZ 231120
TAFINW
TAF
KINW 231120Z 2312/2412 22010KT P6SM SCT080 BKN100
     FM231800 25013G24KT P6SM BKN070
     FM240200 21009KT P6SM BKN100=



000
FTUS45 KFGZ 231120
TAFINW
TAF
KINW 231120Z 2312/2412 22010KT P6SM SCT080 BKN100
     FM231800 25013G24KT P6SM BKN070
     FM240200 21009KT P6SM BKN100=



000
FTUS45 KFGZ 231120
TAFFLG
TAF
KFLG 231120Z 2312/2412 24006KT P6SM SCT035 BKN060
     FM231900 24012G18KT P6SM SCT030 BKN045
      TEMPO 2320/2324 5SM -TSRA BKN030CB
     FM240100 VRB05KT P6SM BKN035 BKN100=



000
FTUS45 KFGZ 230909 AAA
TAFPGA
TAF AMD
KPGA 230909Z 2309/2406 VRB05KT P6SM SCT070 BKN130
     FM231000 VRB06KT 6SM -SHRA BKN050 OVC080
      TEMPO 2311/2315 4SM -SHRA BR SCT030 OVC050
     FM231700 22010KT P6SM BKN040 BKN080
      TEMPO 2320/2324 5SM -SHRA BKN030
     FM240200 VRB05KT P6SM BKN050 BKN100=



000
FTUS45 KFGZ 230719 AAA
TAFFLG
TAF AMD
KFLG 230719Z 2307/2406 VRB04KT P6SM BKN040
      TEMPO 2309/2313 BKN025 BKN100
     FM231900 22012G18KT P6SM BKN040 BKN080
      TEMPO 2320/2324 5SM -SHRA BKN030
     FM240100 VRB05KT P6SM BKN030 BKN080=



000
FTUS45 KFGZ 230541
TAFFLG
TAF
KFLG 230541Z 2306/2406 VRB04KT P6SM BKN040
      TEMPO 2309/2313 BKN025 BKN100
     FM231900 22012G18KT P6SM VCSH BKN040 BKN080
      TEMPO 2320/2324 5SM -SHRA BKN030
     FM240300 VRB05KT P6SM BKN030 BKN080=



000
FTUS45 KFGZ 230541
TAFPGA
TAF
KPGA 230541Z 2306/2406 VRB05KT P6SM SCT070 BKN130
     FM231100 VRB06KT 6SM -SHRA BKN050 OVC080
     FM231800 22010KT P6SM BKN040 BKN080
      TEMPO 2320/2324 5SM -SHRA BKN030
     FM240200 VRB05KT P6SM BKN050 BKN100=



000
FTUS45 KFGZ 230541
TAFINW
TAF
KINW 230541Z 2306/2406 22010KT P6SM SCT080
     FM231800 24012G22KT P6SM BKN070
     FM240300 21009KT P6SM BKN100=



000
FTUS45 KFGZ 230307 AAB
TAFINW
TAF AMD
KINW 230307Z 2303/2324 22012KT P6SM FEW080
     FM230400 22010KT P6SM SCT080
     FM231800 24012G22KT P6SM BKN070=



000
FTUS45 KFGZ 230305 AAC
TAFFLG
TAF AMD
KFLG 230305Z 2303/2324 VRB05KT P6SM SCT030 SCT050
     FM230600 VRB04KT P6SM BKN040
     FM231800 22012G18KT P6SM BKN040 PROB30 2318/2324 5SM -SHRA
      OVC030=



000
FTUS45 KFGZ 230305 AAC
TAFFLG
TAF AMD
KFLG 230305Z 2303/2324 VRB05KT P6SM SCT030 SCT050
     FM230600 VRB04KT P6SM BKN040
     FM231800 22012G18KT P6SM BKN040 PROB30 2318/2324 5SM -SHRA
      OVC030=



000
FTUS45 KFGZ 230213 AAB
TAFFLG
TAF AMD
KFLG 230213Z 2302/2324 22010G20KT P6SM VCTS BKN040CB BKN060
      TEMPO 2302/2303 VRB20G30KT 5SM -TSRA BKN030CB OVC060
     FM230300 VRB05KT P6SM BKN030
     FM231800 22012G18KT P6SM BKN040 PROB30 2318/2324 5SM -SHRA
      OVC030=



000
FTUS45 KFGZ 230115 AAA
TAFINW
TAF AMD
KINW 230115Z 2301/2324 20020G30KT P6SM SCT080
     FM230400 22010KT P6SM SCT080
     FM231800 24012G22KT P6SM BKN070=



000
FTUS45 KFGZ 230115 AAA
TAFINW
TAF AMD
KINW 230115Z 2301/2324 20020G30KT P6SM SCT080
     FM230400 22010KT P6SM SCT080
     FM231800 24012G22KT P6SM BKN070=



000
FTUS45 KFGZ 230114 AAA
TAFFLG
TAF AMD
KFLG 230114Z 2301/2324 19010G20KT P6SM VCTS SCT030CB BKN060
      TEMPO 2301/2303 VRB20G30KT 5SM -TSRA BKN030CB OVC060
     FM230300 VRB05KT P6SM BKN030
     FM231800 22012G18KT P6SM BKN040 PROB30 2318/2324 5SM -SHRA
      OVC030=



000
FTUS45 KFGZ 230114 AAA
TAFFLG
TAF AMD
KFLG 230114Z 2301/2324 19010G20KT P6SM VCTS SCT030CB BKN060
      TEMPO 2301/2303 VRB20G30KT 5SM -TSRA BKN030CB OVC060
     FM230300 VRB05KT P6SM BKN030
     FM231800 22012G18KT P6SM BKN040 PROB30 2318/2324 5SM -SHRA
      OVC030=



000
FTUS45 KFGZ 222340
TAFFLG
TAF
KFLG 222340Z 2300/2324 19010G20KT P6SM SCT030 BKN050
      TEMPO 2300/2303 6SM -SHRA OVC030
     FM230300 VRB05KT P6SM BKN030
     FM231800 22012G18KT P6SM BKN040 PROB30 2318/2324 5SM -SHRA
      OVC030=



000
FTUS45 KFGZ 222340
TAFINW
TAF
KINW 222340Z 2300/2324 19015G25KT P6SM FEW080
     FM230200 22010KT P6SM SCT080
     FM231800 24012G22KT P6SM BKN070=



000
FTUS45 KFGZ 222340
TAFPGA
TAF
KPGA 222340Z 2300/2324 24009G17KT P6SM SCT060 BKN120
      TEMPO 2300/2303 VRB15G25KT 5SM -TSRA BKN050CB
     FM230300 VRB05KT P6SM SCT070 BKN130
     FM231100 VRB06KT 6SM -SHRA BKN050 OVC080
     FM231800 22010KT P6SM BKN060
      TEMPO 2318/2322 5SM SHRA BKN050=



000
FTUS45 KFGZ 222340
TAFINW
TAF
KINW 222340Z 2300/2324 19015G25KT P6SM FEW080
     FM230200 22010KT P6SM SCT080
     FM231800 24012G22KT P6SM BKN070=



000
FTUS45 KFGZ 222340
TAFFLG
TAF
KFLG 222340Z 2300/2324 19010G20KT P6SM SCT030 BKN050
      TEMPO 2300/2303 6SM -SHRA OVC030
     FM230300 VRB05KT P6SM BKN030
     FM231800 22012G18KT P6SM BKN040 PROB30 2318/2324 5SM -SHRA
      OVC030=



000
FTUS45 KFGZ 222340
TAFPGA
TAF
KPGA 222340Z 2300/2324 24009G17KT P6SM SCT060 BKN120
      TEMPO 2300/2303 VRB15G25KT 5SM -TSRA BKN050CB
     FM230300 VRB05KT P6SM SCT070 BKN130
     FM231100 VRB06KT 6SM -SHRA BKN050 OVC080
     FM231800 22010KT P6SM BKN060
      TEMPO 2318/2322 5SM SHRA BKN050=



000
FTUS45 KFGZ 222024 AAA
TAFFLG
TAF AMD
KFLG 222024Z 2220/2318 19015G25KT P6SM SCT030 BKN050
      TEMPO 2220/2224 VRB20G30KT 6SM -SHRA OVC030
     FM230200 VRB05KT P6SM BKN030=



000
FTUS45 KFGZ 222024 AAA
TAFFLG
TAF AMD
KFLG 222024Z 2220/2318 19015G25KT P6SM SCT030 BKN050
      TEMPO 2220/2224 VRB20G30KT 6SM -SHRA OVC030
     FM230200 VRB05KT P6SM BKN030=



000
FTUS45 KFGZ 221740
TAFPGA
TAF
KPGA 221740Z 2218/2318 VRB05KT P6SM SCT140 BKN200
     FM221900 20010G20KT P6SM SCT060 BKN120
      TEMPO 2220/2224 VRB20G30KT 5SM -TSRA BKN050CB
     FM230000 VRB05KT P6SM VCSH BKN050 BKN080
      AMD NOT SKED=



000
FTUS45 KFGZ 221740
TAFFLG
TAF
KFLG 221740Z 2218/2318 21015G25KT P6SM SCT030 BKN050
      TEMPO 2222/2302 6SM -SHRA OVC030
     FM230200 VRB05KT P6SM BKN030=



000
FTUS45 KFGZ 221740
TAFPGA
TAF
KPGA 221740Z 2218/2318 VRB05KT P6SM SCT140 BKN200
     FM221900 20010G20KT P6SM SCT060 BKN120
      TEMPO 2220/2224 VRB20G30KT 5SM -TSRA BKN050CB
     FM230000 VRB05KT P6SM VCSH BKN050 BKN080
      AMD NOT SKED=



000
FTUS45 KFGZ 221740
TAFINW
TAF
KINW 221740Z 2218/2318 18010G20KT P6SM FEW080
     FM221930 20020G30KT P6SM SCT080
     FM230200 22010KT P6SM SCT080=



000
FTUS45 KFGZ 221740
TAFFLG
TAF
KFLG 221740Z 2218/2318 21015G25KT P6SM SCT030 BKN050
      TEMPO 2222/2302 6SM -SHRA OVC030
     FM230200 VRB05KT P6SM BKN030=



000
FTUS45 KFGZ 221740
TAFINW
TAF
KINW 221740Z 2218/2318 18010G20KT P6SM FEW080
     FM221930 20020G30KT P6SM SCT080
     FM230200 22010KT P6SM SCT080=



000
FTUS45 KFGZ 221359 CCA
TAFFLG
TAF COR
KFLG 221359Z 2214/2312 22008KT P6SM BKN018 BKN025
      TEMPO 2214/2217 SCT018 BKN025
     FM221700 21015G25KT P6SM BKN020 BKN040
      TEMPO 2222/2302 5SM SHRA OVC020
     FM230200 VRB05KT P6SM BKN020 BKN040 PROB30 2302/2305 5SM -SHRA
      BR=



000
FTUS45 KFGZ 221357 AAB
TAFFLG
TAF AMD
KFLG 221357Z 2214/2312 22008KT P6SM BKN018 BKN030
      TEMPO 2214/2217 SCT018 BKN030
     FM221700 21015G25KT P6SM BKN020 BKN040
      TEMPO 2222/2302 5SM SHRA OVC020
     FM230200 VRB05KT P6SM BKN020 BKN040=



000
FTUS45 KFGZ 221239 AAA
TAFFLG
TAF AMD
KFLG 221239Z 2213/2312 20008KT P6SM SCT020 SCT120
     FM221600 21017G25KT P6SM SCT025 BKN040
      TEMPO 2221/2301 5SM SHRA BKN025 OVC040
     FM230100 VRB05KT P6SM BKN025 BKN040 PROB30 2301/2305 6SM -SHRA
      BR=



000
FTUS45 KFGZ 221239 AAA
TAFFLG
TAF AMD
KFLG 221239Z 2213/2312 20008KT P6SM SCT020 SCT120
     FM221600 21017G25KT P6SM SCT025 BKN040
      TEMPO 2221/2301 5SM SHRA BKN025 OVC040
     FM230100 VRB05KT P6SM BKN025 BKN040 PROB30 2301/2305 6SM -SHRA
      BR=



000
FTUS45 KFGZ 221120
TAFINW
TAF
KINW 221120Z 2212/2312 19007KT P6SM SCT140 SCT200
     FM221600 18010G20KT P6SM SCT080
     FM221900 20020G30KT P6SM SCT080
     FM230200 22010KT P6SM SCT080=



000
FTUS45 KFGZ 221120
TAFFLG
TAF
KFLG 221120Z 2212/2312 20008KT P6SM SCT045 SCT120
     FM221600 21017G25KT P6SM SCT035 BKN050
      TEMPO 2221/2301 5SM SHRA BKN035 OVC050
     FM230100 VRB05KT P6SM BKN025 BKN040 PROB30 2301/2305 6SM -SHRA
      BR=



000
FTUS45 KFGZ 221120
TAFPGA
TAF
KPGA 221120Z 2212/2312 VRB05KT P6SM SCT140 BKN200
     FM221900 20010G20KT P6SM SCT060 BKN120
      TEMPO 2220/2224 VRB20G30KT 5SM -TSRA BKN050CB
     FM230000 VRB05KT P6SM VCSH BKN050 BKN080 PROB30 2300/2304 5SM
      -SHRA OVC050
      AMD NOT SKED=



000
FTUS45 KFGZ 221120
TAFINW
TAF
KINW 221120Z 2212/2312 19007KT P6SM SCT140 SCT200
     FM221600 18010G20KT P6SM SCT080
     FM221900 20020G30KT P6SM SCT080
     FM230200 22010KT P6SM SCT080=



000
FTUS45 KFGZ 221120
TAFPGA
TAF
KPGA 221120Z 2212/2312 VRB05KT P6SM SCT140 BKN200
     FM221900 20010G20KT P6SM SCT060 BKN120
      TEMPO 2220/2224 VRB20G30KT 5SM -TSRA BKN050CB
     FM230000 VRB05KT P6SM VCSH BKN050 BKN080 PROB30 2300/2304 5SM
      -SHRA OVC050
      AMD NOT SKED=



000
FTUS45 KFGZ 221120
TAFFLG
TAF
KFLG 221120Z 2212/2312 20008KT P6SM SCT045 SCT120
     FM221600 21017G25KT P6SM SCT035 BKN050
      TEMPO 2221/2301 5SM SHRA BKN035 OVC050
     FM230100 VRB05KT P6SM BKN025 BKN040 PROB30 2301/2305 6SM -SHRA
      BR=



    US Dept of Commerce
    National Oceanic and Atmospheric Administration
    National Weather Service
    1325 East West Highway
    Silver Spring, MD 20910
    Page Author: NWS Internet Services Team
Disclaimer
Information Quality
Credits
Glossary
Privacy Policy
Freedom of Information Act (FOIA)
About Us
Career Opportunities